sensor_id;sensor_type;location;lat;lon;timestamp;P1;durP1;ratioP1;P2;durP2;ratioP2
19183;SDS011;9724;51.194;6.856;2024-02-21T00:01:03;24.60;;;8.73;;
19183;SDS011;9724;51.194;6.856;2024-02-21T00:03:29;23.87;;;8.43;;
19183;SDS011;9724;51.194;6.856;2024-02-21T00:05:56;28.80;;;8.43;;
19183;SDS011;9724;51.194;6.856;2024-02-21T00:08:23;27.47;;;9.33;;
19183;SDS011;9724;51.194;6.856;2024-02-21T00:10:49;27.20;;;9.00;;
19183;SDS011;9724;51.194;6.856;2024-02-21T00:13:15;24.23;;;8.33;;
19183;SDS011;9724;51.194;6.856;2024-02-21T00:15:42;21.73;;;7.93;;
19183;SDS011;9724;51.194;6.856;2024-02-21T00:18:08;34.73;;;8.93;;
19183;SDS011;9724;51.194;6.856;2024-02-21T00:20:36;25.30;;;8.83;;
19183;SDS011;9724;51.194;6.856;2024-02-21T00:23:03;30.73;;;9.30;;
19183;SDS011;9724;51.194;6.856;2024-02-21T00:25:29;27.93;;;8.77;;
19183;SDS011;9724;51.194;6.856;2024-02-21T00:27:55;25.37;;;8.80;;
19183;SDS011;9724;51.194;6.856;2024-02-21T00:30:22;25.97;;;9.60;;
19183;SDS011;9724;51.194;6.856;2024-02-21T00:32:48;28.20;;;8.77;;
19183;SDS011;9724;51.194;6.856;2024-02-21T00:35:14;23.13;;;8.27;;
19183;SDS011;9724;51.194;6.856;2024-02-21T00:37:41;27.73;;;8.93;;
19183;SDS011;9724;51.194;6.856;2024-02-21T00:40:08;29.30;;;8.47;;
19183;SDS011;9724;51.194;6.856;2024-02-21T00:42:35;28.83;;;9.07;;
19183;SDS011;9724;51.194;6.856;2024-02-21T00:45:02;25.37;;;8.70;;
19183;SDS011;9724;51.194;6.856;2024-02-21T00:47:28;28.70;;;8.70;;
19183;SDS011;9724;51.194;6.856;2024-02-21T00:49:55;26.67;;;8.67;;
19183;SDS011;9724;51.194;6.856;2024-02-21T00:52:21;33.40;;;9.10;;
19183;SDS011;9724;51.194;6.856;2024-02-21T00:54:47;26.27;;;9.80;;
19183;SDS011;9724;51.194;6.856;2024-02-21T00:57:20;27.33;;;8.07;;
19183;SDS011;9724;51.194;6.856;2024-02-21T00:59:46;26.47;;;9.33;;
19183;SDS011;9724;51.194;6.856;2024-02-21T01:02:13;21.27;;;8.07;;
19183;SDS011;9724;51.194;6.856;2024-02-21T01:04:39;25.73;;;9.00;;
19183;SDS011;9724;51.194;6.856;2024-02-21T01:07:05;30.03;;;8.53;;
19183;SDS011;9724;51.194;6.856;2024-02-21T01:09:32;25.57;;;8.70;;
19183;SDS011;9724;51.194;6.856;2024-02-21T01:11:58;25.63;;;9.17;;
19183;SDS011;9724;51.194;6.856;2024-02-21T01:14:25;26.10;;;8.70;;
19183;SDS011;9724;51.194;6.856;2024-02-21T01:16:51;28.20;;;9.23;;
19183;SDS011;9724;51.194;6.856;2024-02-21T01:19:17;31.93;;;9.60;;
19183;SDS011;9724;51.194;6.856;2024-02-21T01:21:44;26.50;;;9.47;;
19183;SDS011;9724;51.194;6.856;2024-02-21T01:24:10;30.43;;;9.07;;
19183;SDS011;9724;51.194;6.856;2024-02-21T01:26:36;29.50;;;9.20;;
19183;SDS011;9724;51.194;6.856;2024-02-21T01:29:02;30.67;;;8.70;;
19183;SDS011;9724;51.194;6.856;2024-02-21T01:31:29;26.50;;;8.67;;
19183;SDS011;9724;51.194;6.856;2024-02-21T01:33:56;31.53;;;9.40;;
19183;SDS011;9724;51.194;6.856;2024-02-21T01:36:23;28.73;;;9.00;;
19183;SDS011;9724;51.194;6.856;2024-02-21T01:38:49;22.93;;;8.33;;
19183;SDS011;9724;51.194;6.856;2024-02-21T01:41:15;24.77;;;8.53;;
19183;SDS011;9724;51.194;6.856;2024-02-21T01:43:42;22.27;;;8.13;;
19183;SDS011;9724;51.194;6.856;2024-02-21T01:46:08;25.43;;;9.30;;
19183;SDS011;9724;51.194;6.856;2024-02-21T01:48:35;23.90;;;8.20;;
19183;SDS011;9724;51.194;6.856;2024-02-21T01:51:02;26.50;;;7.83;;
19183;SDS011;9724;51.194;6.856;2024-02-21T01:53:30;34.90;;;9.00;;
19183;SDS011;9724;51.194;6.856;2024-02-21T01:55:58;23.83;;;8.10;;
19183;SDS011;9724;51.194;6.856;2024-02-21T01:58:25;27.73;;;7.57;;
19183;SDS011;9724;51.194;6.856;2024-02-21T02:00:51;21.60;;;7.87;;
19183;SDS011;9724;51.194;6.856;2024-02-21T02:03:19;23.87;;;8.73;;
19183;SDS011;9724;51.194;6.856;2024-02-21T02:05:47;19.53;;;7.60;;
19183;SDS011;9724;51.194;6.856;2024-02-21T02:08:14;23.43;;;8.60;;
19183;SDS011;9724;51.194;6.856;2024-02-21T02:10:41;19.37;;;7.57;;
19183;SDS011;9724;51.194;6.856;2024-02-21T02:13:07;28.43;;;8.60;;
19183;SDS011;9724;51.194;6.856;2024-02-21T02:15:37;18.43;;;7.63;;
19183;SDS011;9724;51.194;6.856;2024-02-21T02:18:04;23.80;;;7.83;;
19183;SDS011;9724;51.194;6.856;2024-02-21T02:20:30;30.83;;;7.90;;
19183;SDS011;9724;51.194;6.856;2024-02-21T02:22:57;25.40;;;7.93;;
19183;SDS011;9724;51.194;6.856;2024-02-21T02:25:25;28.10;;;9.03;;
19183;SDS011;9724;51.194;6.856;2024-02-21T02:27:53;23.17;;;7.47;;
19183;SDS011;9724;51.194;6.856;2024-02-21T02:30:19;18.43;;;7.90;;
19183;SDS011;9724;51.194;6.856;2024-02-21T02:32:45;26.60;;;8.80;;
19183;SDS011;9724;51.194;6.856;2024-02-21T02:35:12;27.37;;;8.10;;
19183;SDS011;9724;51.194;6.856;2024-02-21T02:37:38;24.83;;;8.17;;
19183;SDS011;9724;51.194;6.856;2024-02-21T02:40:05;24.50;;;8.33;;
19183;SDS011;9724;51.194;6.856;2024-02-21T02:42:33;24.10;;;7.57;;
19183;SDS011;9724;51.194;6.856;2024-02-21T02:44:59;24.47;;;7.53;;
19183;SDS011;9724;51.194;6.856;2024-02-21T02:47:25;20.27;;;8.17;;
19183;SDS011;9724;51.194;6.856;2024-02-21T02:49:52;19.83;;;7.33;;
19183;SDS011;9724;51.194;6.856;2024-02-21T02:52:18;21.43;;;8.00;;
19183;SDS011;9724;51.194;6.856;2024-02-21T02:54:44;25.50;;;8.03;;
19183;SDS011;9724;51.194;6.856;2024-02-21T02:57:11;18.37;;;7.20;;
19183;SDS011;9724;51.194;6.856;2024-02-21T02:59:38;20.97;;;7.93;;
19183;SDS011;9724;51.194;6.856;2024-02-21T03:02:04;25.47;;;8.00;;
19183;SDS011;9724;51.194;6.856;2024-02-21T03:04:30;20.23;;;8.53;;
19183;SDS011;9724;51.194;6.856;2024-02-21T03:06:56;19.23;;;7.57;;
19183;SDS011;9724;51.194;6.856;2024-02-21T03:09:23;18.57;;;7.70;;
19183;SDS011;9724;51.194;6.856;2024-02-21T03:11:49;19.37;;;7.87;;
19183;SDS011;9724;51.194;6.856;2024-02-21T03:14:15;21.17;;;7.80;;
19183;SDS011;9724;51.194;6.856;2024-02-21T03:16:42;24.07;;;7.60;;
19183;SDS011;9724;51.194;6.856;2024-02-21T03:19:08;20.30;;;7.40;;
19183;SDS011;9724;51.194;6.856;2024-02-21T03:21:35;19.83;;;7.10;;
19183;SDS011;9724;51.194;6.856;2024-02-21T03:24:01;23.67;;;7.67;;
19183;SDS011;9724;51.194;6.856;2024-02-21T03:26:27;22.53;;;7.63;;
19183;SDS011;9724;51.194;6.856;2024-02-21T03:28:53;26.87;;;7.53;;
19183;SDS011;9724;51.194;6.856;2024-02-21T03:31:19;20.03;;;7.37;;
19183;SDS011;9724;51.194;6.856;2024-02-21T03:33:46;21.10;;;7.47;;
19183;SDS011;9724;51.194;6.856;2024-02-21T03:36:13;19.40;;;7.47;;
19183;SDS011;9724;51.194;6.856;2024-02-21T03:38:40;19.47;;;7.67;;
19183;SDS011;9724;51.194;6.856;2024-02-21T03:41:06;17.60;;;7.00;;
19183;SDS011;9724;51.194;6.856;2024-02-21T03:43:32;15.00;;;5.97;;
19183;SDS011;9724;51.194;6.856;2024-02-21T03:45:58;17.70;;;6.40;;
19183;SDS011;9724;51.194;6.856;2024-02-21T03:48:25;20.00;;;7.93;;
19183;SDS011;9724;51.194;6.856;2024-02-21T03:50:52;21.10;;;7.47;;
19183;SDS011;9724;51.194;6.856;2024-02-21T03:53:18;21.67;;;7.20;;
19183;SDS011;9724;51.194;6.856;2024-02-21T03:55:44;23.07;;;7.63;;
19183;SDS011;9724;51.194;6.856;2024-02-21T03:58:10;24.63;;;6.77;;
19183;SDS011;9724;51.194;6.856;2024-02-21T04:00:36;18.13;;;7.17;;
19183;SDS011;9724;51.194;6.856;2024-02-21T04:03:03;26.47;;;7.83;;
19183;SDS011;9724;51.194;6.856;2024-02-21T04:05:29;20.03;;;7.23;;
19183;SDS011;9724;51.194;6.856;2024-02-21T04:07:56;24.07;;;7.07;;
19183;SDS011;9724;51.194;6.856;2024-02-21T04:10:22;21.70;;;6.43;;
19183;SDS011;9724;51.194;6.856;2024-02-21T04:12:49;24.40;;;7.13;;
19183;SDS011;9724;51.194;6.856;2024-02-21T04:15:15;20.53;;;6.67;;
19183;SDS011;9724;51.194;6.856;2024-02-21T04:17:42;19.67;;;6.30;;
19183;SDS011;9724;51.194;6.856;2024-02-21T04:20:13;23.27;;;7.10;;
19183;SDS011;9724;51.194;6.856;2024-02-21T04:22:40;18.27;;;6.60;;
19183;SDS011;9724;51.194;6.856;2024-02-21T04:25:07;12.43;;;5.87;;
19183;SDS011;9724;51.194;6.856;2024-02-21T04:27:33;16.17;;;6.50;;
19183;SDS011;9724;51.194;6.856;2024-02-21T04:30:00;22.63;;;7.07;;
19183;SDS011;9724;51.194;6.856;2024-02-21T04:32:26;16.13;;;6.43;;
19183;SDS011;9724;51.194;6.856;2024-02-21T04:34:53;22.57;;;6.43;;
19183;SDS011;9724;51.194;6.856;2024-02-21T04:37:20;22.43;;;6.10;;
19183;SDS011;9724;51.194;6.856;2024-02-21T04:39:48;21.07;;;6.57;;
19183;SDS011;9724;51.194;6.856;2024-02-21T04:42:15;15.27;;;5.60;;
19183;SDS011;9724;51.194;6.856;2024-02-21T04:44:41;20.47;;;6.23;;
19183;SDS011;9724;51.194;6.856;2024-02-21T04:47:08;17.17;;;6.87;;
19183;SDS011;9724;51.194;6.856;2024-02-21T04:49:34;24.90;;;6.43;;
19183;SDS011;9724;51.194;6.856;2024-02-21T04:52:01;17.20;;;6.70;;
19183;SDS011;9724;51.194;6.856;2024-02-21T04:54:27;15.67;;;6.47;;
19183;SDS011;9724;51.194;6.856;2024-02-21T04:56:53;17.40;;;6.00;;
19183;SDS011;9724;51.194;6.856;2024-02-21T04:59:20;17.40;;;6.40;;
19183;SDS011;9724;51.194;6.856;2024-02-21T05:01:47;20.63;;;6.57;;
19183;SDS011;9724;51.194;6.856;2024-02-21T05:04:13;16.00;;;5.77;;
19183;SDS011;9724;51.194;6.856;2024-02-21T05:06:39;19.77;;;6.50;;
19183;SDS011;9724;51.194;6.856;2024-02-21T05:09:06;21.60;;;6.67;;
19183;SDS011;9724;51.194;6.856;2024-02-21T05:11:32;22.10;;;6.33;;
19183;SDS011;9724;51.194;6.856;2024-02-21T05:13:58;19.63;;;6.80;;
19183;SDS011;9724;51.194;6.856;2024-02-21T05:16:25;18.07;;;6.07;;
19183;SDS011;9724;51.194;6.856;2024-02-21T05:18:52;15.40;;;5.93;;
19183;SDS011;9724;51.194;6.856;2024-02-21T05:21:18;18.60;;;6.30;;
19183;SDS011;9724;51.194;6.856;2024-02-21T05:23:44;16.47;;;5.80;;
19183;SDS011;9724;51.194;6.856;2024-02-21T05:26:11;16.37;;;6.00;;
19183;SDS011;9724;51.194;6.856;2024-02-21T05:28:37;15.20;;;6.33;;
19183;SDS011;9724;51.194;6.856;2024-02-21T05:31:03;15.60;;;5.87;;
19183;SDS011;9724;51.194;6.856;2024-02-21T05:33:30;16.13;;;5.37;;
19183;SDS011;9724;51.194;6.856;2024-02-21T05:35:59;15.83;;;6.47;;
19183;SDS011;9724;51.194;6.856;2024-02-21T05:38:26;22.83;;;6.23;;
19183;SDS011;9724;51.194;6.856;2024-02-21T05:40:52;17.60;;;6.17;;
19183;SDS011;9724;51.194;6.856;2024-02-21T05:43:18;17.90;;;6.33;;
19183;SDS011;9724;51.194;6.856;2024-02-21T05:45:44;11.43;;;5.80;;
19183;SDS011;9724;51.194;6.856;2024-02-21T05:48:11;12.73;;;5.33;;
19183;SDS011;9724;51.194;6.856;2024-02-21T05:50:38;15.83;;;5.43;;
19183;SDS011;9724;51.194;6.856;2024-02-21T05:53:04;14.37;;;5.70;;
19183;SDS011;9724;51.194;6.856;2024-02-21T05:55:31;19.37;;;5.37;;
19183;SDS011;9724;51.194;6.856;2024-02-21T05:57:57;16.63;;;6.10;;
19183;SDS011;9724;51.194;6.856;2024-02-21T06:00:23;14.43;;;5.30;;
19183;SDS011;9724;51.194;6.856;2024-02-21T06:02:49;17.50;;;5.60;;
19183;SDS011;9724;51.194;6.856;2024-02-21T06:05:15;12.83;;;5.63;;
19183;SDS011;9724;51.194;6.856;2024-02-21T06:07:42;19.60;;;5.57;;
19183;SDS011;9724;51.194;6.856;2024-02-21T06:10:09;10.00;;;4.90;;
19183;SDS011;9724;51.194;6.856;2024-02-21T06:12:35;12.70;;;6.13;;
19183;SDS011;9724;51.194;6.856;2024-02-21T06:15:01;21.10;;;7.10;;
19183;SDS011;9724;51.194;6.856;2024-02-21T06:17:28;14.23;;;5.87;;
19183;SDS011;9724;51.194;6.856;2024-02-21T06:19:54;13.87;;;6.03;;
19183;SDS011;9724;51.194;6.856;2024-02-21T06:22:20;15.47;;;6.30;;
19183;SDS011;9724;51.194;6.856;2024-02-21T06:24:47;16.47;;;6.20;;
19183;SDS011;9724;51.194;6.856;2024-02-21T06:27:14;15.67;;;6.10;;
19183;SDS011;9724;51.194;6.856;2024-02-21T06:29:41;13.73;;;5.07;;
19183;SDS011;9724;51.194;6.856;2024-02-21T06:32:08;16.70;;;5.27;;
19183;SDS011;9724;51.194;6.856;2024-02-21T06:34:34;11.63;;;5.23;;
19183;SDS011;9724;51.194;6.856;2024-02-21T06:37:01;16.40;;;5.67;;
19183;SDS011;9724;51.194;6.856;2024-02-21T06:39:27;13.73;;;5.57;;
19183;SDS011;9724;51.194;6.856;2024-02-21T06:41:55;18.37;;;5.27;;
19183;SDS011;9724;51.194;6.856;2024-02-21T06:44:24;15.87;;;5.30;;
19183;SDS011;9724;51.194;6.856;2024-02-21T06:46:51;12.57;;;5.47;;
19183;SDS011;9724;51.194;6.856;2024-02-21T06:49:18;18.53;;;5.40;;
19183;SDS011;9724;51.194;6.856;2024-02-21T06:51:44;19.87;;;6.23;;
19183;SDS011;9724;51.194;6.856;2024-02-21T06:54:10;14.23;;;5.77;;
19183;SDS011;9724;51.194;6.856;2024-02-21T06:56:37;19.87;;;5.60;;
19183;SDS011;9724;51.194;6.856;2024-02-21T06:59:04;13.93;;;5.00;;
19183;SDS011;9724;51.194;6.856;2024-02-21T07:01:30;14.87;;;5.60;;
19183;SDS011;9724;51.194;6.856;2024-02-21T07:03:57;12.47;;;5.30;;
19183;SDS011;9724;51.194;6.856;2024-02-21T07:06:23;15.20;;;4.97;;
19183;SDS011;9724;51.194;6.856;2024-02-21T07:08:50;14.57;;;5.40;;
19183;SDS011;9724;51.194;6.856;2024-02-21T07:11:17;17.10;;;5.30;;
19183;SDS011;9724;51.194;6.856;2024-02-21T07:13:43;15.80;;;5.10;;
19183;SDS011;9724;51.194;6.856;2024-02-21T07:16:10;12.47;;;4.80;;
19183;SDS011;9724;51.194;6.856;2024-02-21T07:18:37;14.07;;;4.50;;
19183;SDS011;9724;51.194;6.856;2024-02-21T07:21:03;15.17;;;5.43;;
19183;SDS011;9724;51.194;6.856;2024-02-21T07:23:29;14.90;;;4.70;;
19183;SDS011;9724;51.194;6.856;2024-02-21T07:25:56;10.80;;;4.57;;
19183;SDS011;9724;51.194;6.856;2024-02-21T07:28:22;10.37;;;4.30;;
19183;SDS011;9724;51.194;6.856;2024-02-21T07:30:50;12.23;;;4.33;;
19183;SDS011;9724;51.194;6.856;2024-02-21T07:33:17;8.83;;;3.73;;
19183;SDS011;9724;51.194;6.856;2024-02-21T07:35:43;9.97;;;4.10;;
19183;SDS011;9724;51.194;6.856;2024-02-21T07:38:10;11.90;;;4.20;;
19183;SDS011;9724;51.194;6.856;2024-02-21T07:40:38;14.47;;;4.73;;
19183;SDS011;9724;51.194;6.856;2024-02-21T07:43:04;13.57;;;4.50;;
19183;SDS011;9724;51.194;6.856;2024-02-21T07:45:30;11.53;;;4.90;;
19183;SDS011;9724;51.194;6.856;2024-02-21T07:47:57;12.20;;;4.33;;
19183;SDS011;9724;51.194;6.856;2024-02-21T07:50:23;9.70;;;4.73;;
19183;SDS011;9724;51.194;6.856;2024-02-21T07:52:50;15.67;;;4.53;;
19183;SDS011;9724;51.194;6.856;2024-02-21T07:55:16;17.00;;;4.77;;
19183;SDS011;9724;51.194;6.856;2024-02-21T07:57:43;8.90;;;4.07;;
19183;SDS011;9724;51.194;6.856;2024-02-21T08:00:09;11.30;;;4.47;;
19183;SDS011;9724;51.194;6.856;2024-02-21T08:02:40;11.10;;;4.37;;
19183;SDS011;9724;51.194;6.856;2024-02-21T08:05:09;13.33;;;4.13;;
19183;SDS011;9724;51.194;6.856;2024-02-21T08:07:38;12.77;;;4.43;;
19183;SDS011;9724;51.194;6.856;2024-02-21T08:10:04;14.37;;;4.53;;
19183;SDS011;9724;51.194;6.856;2024-02-21T08:12:33;15.93;;;4.70;;
19183;SDS011;9724;51.194;6.856;2024-02-21T08:14:59;14.47;;;4.73;;
19183;SDS011;9724;51.194;6.856;2024-02-21T08:17:25;21.27;;;6.43;;
19183;SDS011;9724;51.194;6.856;2024-02-21T08:19:52;20.77;;;5.73;;
19183;SDS011;9724;51.194;6.856;2024-02-21T08:22:18;18.03;;;5.23;;
19183;SDS011;9724;51.194;6.856;2024-02-21T08:24:46;16.17;;;5.10;;
19183;SDS011;9724;51.194;6.856;2024-02-21T08:27:12;17.53;;;4.87;;
19183;SDS011;9724;51.194;6.856;2024-02-21T08:29:38;15.13;;;5.03;;
19183;SDS011;9724;51.194;6.856;2024-02-21T08:32:04;17.50;;;4.37;;
19183;SDS011;9724;51.194;6.856;2024-02-21T08:34:31;15.80;;;4.67;;
19183;SDS011;9724;51.194;6.856;2024-02-21T08:36:59;19.00;;;5.10;;
19183;SDS011;9724;51.194;6.856;2024-02-21T08:39:26;13.70;;;4.90;;
19183;SDS011;9724;51.194;6.856;2024-02-21T08:41:54;19.63;;;5.27;;
19183;SDS011;9724;51.194;6.856;2024-02-21T08:44:23;13.47;;;4.63;;
19183;SDS011;9724;51.194;6.856;2024-02-21T08:46:51;14.10;;;4.70;;
19183;SDS011;9724;51.194;6.856;2024-02-21T08:49:17;19.87;;;5.03;;
19183;SDS011;9724;51.194;6.856;2024-02-21T08:51:44;19.47;;;5.07;;
19183;SDS011;9724;51.194;6.856;2024-02-21T08:54:11;20.20;;;5.50;;
19183;SDS011;9724;51.194;6.856;2024-02-21T08:56:38;14.77;;;4.73;;
19183;SDS011;9724;51.194;6.856;2024-02-21T08:59:04;12.27;;;4.83;;
19183;SDS011;9724;51.194;6.856;2024-02-21T09:01:31;15.13;;;4.87;;
19183;SDS011;9724;51.194;6.856;2024-02-21T09:03:58;14.73;;;5.33;;
19183;SDS011;9724;51.194;6.856;2024-02-21T09:06:25;17.07;;;4.80;;
19183;SDS011;9724;51.194;6.856;2024-02-21T09:08:53;14.27;;;4.90;;
19183;SDS011;9724;51.194;6.856;2024-02-21T09:11:19;15.87;;;4.90;;
19183;SDS011;9724;51.194;6.856;2024-02-21T09:13:45;13.10;;;4.70;;
19183;SDS011;9724;51.194;6.856;2024-02-21T09:16:13;16.63;;;5.03;;
19183;SDS011;9724;51.194;6.856;2024-02-21T09:18:39;16.00;;;4.43;;
19183;SDS011;9724;51.194;6.856;2024-02-21T09:21:05;17.80;;;4.93;;
19183;SDS011;9724;51.194;6.856;2024-02-21T09:23:31;19.57;;;5.43;;
19183;SDS011;9724;51.194;6.856;2024-02-21T09:25:58;15.40;;;4.27;;
19183;SDS011;9724;51.194;6.856;2024-02-21T09:28:26;17.37;;;4.73;;
19183;SDS011;9724;51.194;6.856;2024-02-21T09:30:52;15.40;;;4.83;;
19183;SDS011;9724;51.194;6.856;2024-02-21T09:33:19;11.00;;;4.70;;
19183;SDS011;9724;51.194;6.856;2024-02-21T09:35:57;19.70;;;5.13;;
19183;SDS011;9724;51.194;6.856;2024-02-21T09:38:23;21.90;;;5.87;;
19183;SDS011;9724;51.194;6.856;2024-02-21T09:40:52;14.83;;;5.03;;
19183;SDS011;9724;51.194;6.856;2024-02-21T09:43:25;16.87;;;4.63;;
19183;SDS011;9724;51.194;6.856;2024-02-21T09:45:51;17.03;;;5.00;;
19183;SDS011;9724;51.194;6.856;2024-02-21T09:51:08;11.80;;;4.60;;
19183;SDS011;9724;51.194;6.856;2024-02-21T09:53:35;16.13;;;4.83;;
19183;SDS011;9724;51.194;6.856;2024-02-21T09:56:03;15.47;;;5.03;;
19183;SDS011;9724;51.194;6.856;2024-02-21T09:58:31;16.40;;;5.03;;
19183;SDS011;9724;51.194;6.856;2024-02-21T10:00:59;14.70;;;4.80;;
19183;SDS011;9724;51.194;6.856;2024-02-21T10:03:25;14.73;;;5.10;;
19183;SDS011;9724;51.194;6.856;2024-02-21T10:05:52;12.00;;;4.63;;
19183;SDS011;9724;51.194;6.856;2024-02-21T10:08:19;15.47;;;5.03;;
19183;SDS011;9724;51.194;6.856;2024-02-21T10:10:45;11.27;;;4.77;;
19183;SDS011;9724;51.194;6.856;2024-02-21T10:13:24;12.87;;;4.53;;
19183;SDS011;9724;51.194;6.856;2024-02-21T10:16:00;10.83;;;4.20;;
19183;SDS011;9724;51.194;6.856;2024-02-21T10:18:27;10.17;;;4.10;;
19183;SDS011;9724;51.194;6.856;2024-02-21T10:21:00;11.03;;;4.00;;
19183;SDS011;9724;51.194;6.856;2024-02-21T10:23:29;12.40;;;3.83;;
19183;SDS011;9724;51.194;6.856;2024-02-21T10:26:04;9.47;;;3.40;;
19183;SDS011;9724;51.194;6.856;2024-02-21T10:28:31;11.70;;;3.70;;
19183;SDS011;9724;51.194;6.856;2024-02-21T10:30:57;6.70;;;2.90;;
19183;SDS011;9724;51.194;6.856;2024-02-21T10:33:24;7.43;;;3.40;;
19183;SDS011;9724;51.194;6.856;2024-02-21T10:35:53;9.13;;;3.70;;
19183;SDS011;9724;51.194;6.856;2024-02-21T10:38:20;8.57;;;3.50;;
19183;SDS011;9724;51.194;6.856;2024-02-21T10:40:46;10.60;;;3.43;;
19183;SDS011;9724;51.194;6.856;2024-02-21T10:43:14;7.37;;;3.47;;
19183;SDS011;9724;51.194;6.856;2024-02-21T10:45:40;10.20;;;3.73;;
19183;SDS011;9724;51.194;6.856;2024-02-21T10:48:08;9.20;;;3.50;;
19183;SDS011;9724;51.194;6.856;2024-02-21T10:50:36;13.83;;;3.43;;
19183;SDS011;9724;51.194;6.856;2024-02-21T10:53:29;7.33;;;3.57;;
19183;SDS011;9724;51.194;6.856;2024-02-21T10:56:06;8.60;;;3.30;;
19183;SDS011;9724;51.194;6.856;2024-02-21T10:58:39;6.33;;;3.37;;
19183;SDS011;9724;51.194;6.856;2024-02-21T11:01:05;11.80;;;3.53;;
19183;SDS011;9724;51.194;6.856;2024-02-21T11:03:33;7.87;;;3.50;;
19183;SDS011;9724;51.194;6.856;2024-02-21T11:05:59;6.13;;;3.50;;
19183;SDS011;9724;51.194;6.856;2024-02-21T11:08:26;10.77;;;3.70;;
19183;SDS011;9724;51.194;6.856;2024-02-21T11:10:56;7.37;;;3.20;;
19183;SDS011;9724;51.194;6.856;2024-02-21T11:13:29;10.07;;;3.83;;
19183;SDS011;9724;51.194;6.856;2024-02-21T11:16:05;11.87;;;4.10;;
19183;SDS011;9724;51.194;6.856;2024-02-21T11:18:33;11.10;;;3.80;;
19183;SDS011;9724;51.194;6.856;2024-02-21T11:21:00;13.67;;;3.40;;
19183;SDS011;9724;51.194;6.856;2024-02-21T11:23:26;11.63;;;3.87;;
19183;SDS011;9724;51.194;6.856;2024-02-21T11:25:52;10.07;;;3.23;;
19183;SDS011;9724;51.194;6.856;2024-02-21T11:28:30;12.30;;;4.17;;
19183;SDS011;9724;51.194;6.856;2024-02-21T11:31:04;6.73;;;3.50;;
19183;SDS011;9724;51.194;6.856;2024-02-21T11:33:32;14.60;;;3.50;;
19183;SDS011;9724;51.194;6.856;2024-02-21T11:35:59;10.03;;;3.30;;
19183;SDS011;9724;51.194;6.856;2024-02-21T11:38:25;13.50;;;3.60;;
19183;SDS011;9724;51.194;6.856;2024-02-21T11:40:51;10.37;;;3.77;;
19183;SDS011;9724;51.194;6.856;2024-02-21T11:43:19;12.60;;;3.50;;
19183;SDS011;9724;51.194;6.856;2024-02-21T11:45:45;12.43;;;3.50;;
19183;SDS011;9724;51.194;6.856;2024-02-21T11:48:12;11.40;;;3.57;;
19183;SDS011;9724;51.194;6.856;2024-02-21T11:50:38;12.40;;;4.20;;
19183;SDS011;9724;51.194;6.856;2024-02-21T11:53:05;9.97;;;2.93;;
19183;SDS011;9724;51.194;6.856;2024-02-21T11:55:31;8.57;;;3.17;;
19183;SDS011;9724;51.194;6.856;2024-02-21T11:57:58;7.40;;;2.97;;
19183;SDS011;9724;51.194;6.856;2024-02-21T12:00:25;11.80;;;3.33;;
19183;SDS011;9724;51.194;6.856;2024-02-21T12:02:51;9.07;;;3.00;;
19183;SDS011;9724;51.194;6.856;2024-02-21T12:05:18;11.60;;;3.43;;
19183;SDS011;9724;51.194;6.856;2024-02-21T12:07:45;9.50;;;3.10;;
19183;SDS011;9724;51.194;6.856;2024-02-21T12:10:11;7.80;;;2.97;;
19183;SDS011;9724;51.194;6.856;2024-02-21T12:12:38;12.17;;;3.27;;
19183;SDS011;9724;51.194;6.856;2024-02-21T12:15:05;9.20;;;2.87;;
19183;SDS011;9724;51.194;6.856;2024-02-21T12:17:33;8.37;;;3.03;;
19183;SDS011;9724;51.194;6.856;2024-02-21T12:20:00;11.93;;;3.53;;
19183;SDS011;9724;51.194;6.856;2024-02-21T12:22:27;8.17;;;3.23;;
19183;SDS011;9724;51.194;6.856;2024-02-21T12:24:53;8.23;;;2.80;;
19183;SDS011;9724;51.194;6.856;2024-02-21T12:27:20;8.70;;;2.93;;
19183;SDS011;9724;51.194;6.856;2024-02-21T12:29:47;8.93;;;3.00;;
19183;SDS011;9724;51.194;6.856;2024-02-21T12:32:14;12.33;;;3.00;;
19183;SDS011;9724;51.194;6.856;2024-02-21T12:34:41;10.70;;;3.33;;
19183;SDS011;9724;51.194;6.856;2024-02-21T12:37:19;11.63;;;3.13;;
19183;SDS011;9724;51.194;6.856;2024-02-21T12:39:47;9.63;;;2.77;;
19183;SDS011;9724;51.194;6.856;2024-02-21T12:42:14;12.13;;;3.00;;
19183;SDS011;9724;51.194;6.856;2024-02-21T12:44:40;7.60;;;2.67;;
19183;SDS011;9724;51.194;6.856;2024-02-21T12:47:07;14.53;;;3.50;;
19183;SDS011;9724;51.194;6.856;2024-02-21T12:49:33;12.43;;;3.70;;
19183;SDS011;9724;51.194;6.856;2024-02-21T12:52:01;8.47;;;3.33;;
19183;SDS011;9724;51.194;6.856;2024-02-21T12:54:29;10.47;;;3.10;;
19183;SDS011;9724;51.194;6.856;2024-02-21T12:56:56;11.37;;;2.87;;
19183;SDS011;9724;51.194;6.856;2024-02-21T12:59:22;8.83;;;3.23;;
19183;SDS011;9724;51.194;6.856;2024-02-21T13:01:48;7.10;;;2.93;;
19183;SDS011;9724;51.194;6.856;2024-02-21T13:04:15;5.50;;;2.50;;
19183;SDS011;9724;51.194;6.856;2024-02-21T13:06:41;6.03;;;2.47;;
19183;SDS011;9724;51.194;6.856;2024-02-21T13:09:08;3.97;;;2.53;;
19183;SDS011;9724;51.194;6.856;2024-02-21T13:11:36;8.17;;;2.73;;
19183;SDS011;9724;51.194;6.856;2024-02-21T13:14:03;9.13;;;2.80;;
19183;SDS011;9724;51.194;6.856;2024-02-21T13:16:29;7.93;;;3.27;;
19183;SDS011;9724;51.194;6.856;2024-02-21T13:18:56;9.33;;;2.90;;
19183;SDS011;9724;51.194;6.856;2024-02-21T13:21:22;7.17;;;2.70;;
19183;SDS011;9724;51.194;6.856;2024-02-21T13:23:49;5.50;;;2.80;;
19183;SDS011;9724;51.194;6.856;2024-02-21T13:26:15;7.33;;;2.67;;
19183;SDS011;9724;51.194;6.856;2024-02-21T13:28:42;7.30;;;2.57;;
19183;SDS011;9724;51.194;6.856;2024-02-21T13:31:10;8.23;;;2.67;;
19183;SDS011;9724;51.194;6.856;2024-02-21T13:33:36;9.23;;;3.03;;
19183;SDS011;9724;51.194;6.856;2024-02-21T13:36:02;7.60;;;2.73;;
19183;SDS011;9724;51.194;6.856;2024-02-21T13:38:29;8.50;;;2.77;;
19183;SDS011;9724;51.194;6.856;2024-02-21T13:40:55;12.23;;;3.07;;
19183;SDS011;9724;51.194;6.856;2024-02-21T13:43:22;11.23;;;3.40;;
19183;SDS011;9724;51.194;6.856;2024-02-21T13:45:55;7.00;;;2.90;;
19183;SDS011;9724;51.194;6.856;2024-02-21T13:48:23;10.77;;;2.90;;
19183;SDS011;9724;51.194;6.856;2024-02-21T13:50:50;13.43;;;2.90;;
19183;SDS011;9724;51.194;6.856;2024-02-21T13:53:16;10.20;;;3.20;;
19183;SDS011;9724;51.194;6.856;2024-02-21T13:55:43;9.17;;;2.83;;
19183;SDS011;9724;51.194;6.856;2024-02-21T13:58:10;7.80;;;3.13;;
19183;SDS011;9724;51.194;6.856;2024-02-21T14:00:37;4.33;;;2.33;;
19183;SDS011;9724;51.194;6.856;2024-02-21T14:03:03;11.07;;;2.80;;
19183;SDS011;9724;51.194;6.856;2024-02-21T14:05:30;7.43;;;3.07;;
19183;SDS011;9724;51.194;6.856;2024-02-21T14:07:57;8.07;;;2.80;;
19183;SDS011;9724;51.194;6.856;2024-02-21T14:10:23;9.90;;;3.27;;
19183;SDS011;9724;51.194;6.856;2024-02-21T14:12:49;6.50;;;2.60;;
19183;SDS011;9724;51.194;6.856;2024-02-21T14:15:16;9.17;;;3.10;;
19183;SDS011;9724;51.194;6.856;2024-02-21T14:17:43;10.07;;;3.10;;
19183;SDS011;9724;51.194;6.856;2024-02-21T14:20:09;7.67;;;2.53;;
19183;SDS011;9724;51.194;6.856;2024-02-21T14:22:39;5.83;;;2.73;;
19183;SDS011;9724;51.194;6.856;2024-02-21T14:25:06;9.07;;;2.60;;
19183;SDS011;9724;51.194;6.856;2024-02-21T14:27:32;11.40;;;3.00;;
19183;SDS011;9724;51.194;6.856;2024-02-21T14:29:59;8.87;;;2.93;;
19183;SDS011;9724;51.194;6.856;2024-02-21T14:32:25;11.30;;;3.03;;
19183;SDS011;9724;51.194;6.856;2024-02-21T14:34:52;8.37;;;2.60;;
19183;SDS011;9724;51.194;6.856;2024-02-21T14:37:18;10.83;;;2.90;;
19183;SDS011;9724;51.194;6.856;2024-02-21T14:39:47;8.13;;;2.93;;
19183;SDS011;9724;51.194;6.856;2024-02-21T14:42:13;10.00;;;3.10;;
19183;SDS011;9724;51.194;6.856;2024-02-21T14:44:39;8.57;;;2.60;;
19183;SDS011;9724;51.194;6.856;2024-02-21T14:47:06;7.67;;;2.47;;
19183;SDS011;9724;51.194;6.856;2024-02-21T14:49:33;10.83;;;2.90;;
19183;SDS011;9724;51.194;6.856;2024-02-21T14:52:00;10.23;;;2.70;;